createdAt,value
2023-12-03T00:02:21.382Z,8.90
2023-12-03T00:04:49.156Z,8.37
2023-12-03T00:07:15.795Z,10.03
2023-12-03T00:09:42.691Z,8.30
2023-12-03T00:12:09.573Z,8.37
2023-12-03T00:14:36.263Z,10.40
2023-12-03T00:17:02.949Z,9.17
2023-12-03T00:19:29.879Z,8.03
2023-12-03T00:21:56.838Z,10.40
2023-12-03T00:24:24.035Z,9.70
2023-12-03T00:26:50.652Z,8.83
2023-12-03T00:29:17.292Z,8.60
2023-12-03T00:31:43.903Z,8.50
2023-12-03T00:34:10.693Z,8.80
2023-12-03T00:36:37.489Z,9.83
2023-12-03T00:39:04.800Z,8.50
2023-12-03T00:41:31.416Z,9.17
2023-12-03T00:43:58.060Z,9.23
2023-12-03T00:46:24.719Z,8.93
2023-12-03T00:48:51.443Z,9.03
2023-12-03T00:51:18.060Z,8.53
2023-12-03T00:53:45.545Z,9.80
2023-12-03T00:56:12.412Z,9.50
2023-12-03T00:58:39.218Z,10.00
2023-12-03T01:01:06.085Z,10.87
2023-12-03T01:03:33.018Z,9.90
2023-12-03T01:05:59.699Z,10.27
2023-12-03T01:08:26.303Z,10.67
2023-12-03T01:10:52.917Z,9.60
2023-12-03T01:13:19.786Z,10.17
2023-12-03T01:15:46.561Z,9.90
2023-12-03T01:18:13.372Z,8.97
2023-12-03T01:20:40.288Z,9.57
2023-12-03T01:23:06.884Z,9.30
2023-12-03T01:25:33.446Z,9.67
2023-12-03T01:28:00.341Z,9.13
2023-12-03T01:30:27.001Z,9.33
2023-12-03T01:32:53.673Z,9.87
2023-12-03T01:35:20.522Z,9.80
2023-12-03T01:37:47.132Z,9.77
2023-12-03T01:40:13.770Z,10.30
2023-12-03T01:42:40.400Z,8.30
2023-12-03T01:45:07.468Z,9.17
2023-12-03T01:47:34.812Z,9.70
2023-12-03T01:50:07.630Z,8.67
2023-12-03T01:52:37.669Z,9.10
2023-12-03T01:55:05.143Z,9.87
2023-12-03T01:57:32.366Z,9.60
2023-12-03T01:59:59.075Z,10.20
2023-12-03T02:02:26.140Z,9.57
2023-12-03T02:04:53.224Z,9.90
2023-12-03T02:07:20.284Z,10.03
2023-12-03T02:09:47.101Z,9.67
2023-12-03T02:12:14.270Z,10.27
2023-12-03T02:14:41.624Z,10.27
2023-12-03T02:17:08.229Z,8.70
2023-12-03T02:19:34.850Z,9.90
2023-12-03T02:22:01.488Z,9.67
2023-12-03T02:24:28.118Z,8.53
2023-12-03T02:26:54.858Z,8.87
2023-12-03T02:29:21.438Z,9.80
2023-12-03T02:31:48.094Z,8.23
2023-12-03T02:34:15.249Z,8.90
2023-12-03T02:36:41.944Z,10.00
2023-12-03T02:39:08.518Z,8.50
2023-12-03T02:41:35.299Z,9.83
2023-12-03T02:44:02.090Z,9.90
2023-12-03T02:46:28.753Z,9.70
2023-12-03T02:48:55.506Z,8.73
2023-12-03T02:51:22.225Z,10.10
2023-12-03T02:53:49.468Z,9.20
2023-12-03T02:56:16.411Z,11.30
2023-12-03T02:58:43.066Z,10.27
2023-12-03T03:01:09.836Z,8.87
2023-12-03T03:03:36.658Z,9.83
2023-12-03T03:06:03.611Z,10.50
2023-12-03T03:08:30.266Z,8.80
2023-12-03T03:10:56.870Z,11.40
2023-12-03T03:13:23.424Z,9.80
2023-12-03T03:15:50.245Z,10.17
2023-12-03T03:18:17.020Z,9.63
2023-12-03T03:20:43.751Z,8.73
2023-12-03T03:23:10.309Z,8.80
2023-12-03T03:25:36.954Z,9.77
2023-12-03T03:28:03.598Z,9.97
2023-12-03T03:30:30.264Z,8.50
2023-12-03T03:32:56.943Z,10.40
2023-12-03T03:35:23.535Z,9.07
2023-12-03T03:37:50.321Z,10.80
2023-12-03T03:40:17.053Z,11.53
2023-12-03T03:42:43.817Z,9.23
2023-12-03T03:45:10.609Z,10.27
2023-12-03T03:47:37.665Z,10.00
2023-12-03T03:50:05.466Z,10.57
2023-12-03T03:52:32.580Z,8.63
2023-12-03T03:54:59.399Z,10.10
2023-12-03T03:57:26.224Z,9.93
2023-12-03T03:59:52.848Z,10.17
2023-12-03T04:02:19.517Z,9.07
2023-12-03T04:04:46.270Z,10.90
2023-12-03T04:07:13.239Z,9.90
2023-12-03T04:09:40.102Z,10.13
2023-12-03T04:12:07.182Z,8.80
2023-12-03T04:14:33.737Z,10.30
2023-12-03T04:17:00.366Z,10.70
2023-12-03T04:19:27.192Z,9.40
2023-12-03T04:21:54.048Z,8.53
2023-12-03T04:24:20.711Z,9.40
2023-12-03T04:26:47.286Z,8.47
2023-12-03T04:29:14.106Z,8.30
2023-12-03T04:31:40.727Z,9.77
2023-12-03T04:34:09.189Z,9.10
2023-12-03T04:36:36.567Z,9.37
2023-12-03T04:39:06.037Z,9.80
2023-12-03T04:41:36.437Z,8.13
2023-12-03T04:44:04.078Z,9.00
2023-12-03T04:46:30.934Z,7.43
2023-12-03T04:48:57.861Z,11.37
2023-12-03T04:51:24.563Z,7.60
2023-12-03T04:53:51.153Z,8.53
2023-12-03T04:56:17.929Z,9.60
2023-12-03T04:58:44.585Z,9.40
2023-12-03T05:01:16.971Z,8.60
2023-12-03T05:03:46.477Z,8.40
2023-12-03T05:06:13.618Z,10.37
2023-12-03T05:08:40.559Z,9.43
2023-12-03T05:11:07.922Z,8.50
2023-12-03T05:13:34.738Z,8.87
2023-12-03T05:16:08.054Z,7.50
2023-12-03T05:18:34.823Z,8.87
2023-12-03T05:21:02.851Z,8.70
2023-12-03T05:23:29.606Z,7.00
2023-12-03T05:25:58.224Z,9.43
2023-12-03T05:28:24.944Z,7.90
2023-12-03T05:30:51.561Z,6.37
2023-12-03T05:33:18.445Z,8.83
2023-12-03T05:35:45.123Z,8.17
2023-12-03T05:38:11.831Z,7.40
2023-12-03T05:40:38.461Z,8.73
2023-12-03T05:43:05.041Z,8.10
2023-12-03T05:45:31.613Z,8.57
2023-12-03T05:47:58.335Z,8.93
2023-12-03T05:50:25.970Z,8.17
2023-12-03T05:52:52.546Z,7.70
2023-12-03T05:55:19.293Z,7.67
2023-12-03T05:57:45.970Z,8.43
2023-12-03T06:00:13.141Z,8.23
2023-12-03T06:02:39.782Z,8.77
2023-12-03T06:05:07.093Z,9.63
2023-12-03T06:07:33.878Z,8.07
2023-12-03T06:10:00.599Z,9.00
2023-12-03T06:12:27.451Z,8.37
2023-12-03T06:14:54.159Z,8.47
2023-12-03T06:17:20.756Z,8.50
2023-12-03T06:19:47.421Z,8.03
2023-12-03T06:22:14.246Z,8.57
2023-12-03T06:24:40.907Z,8.33
2023-12-03T06:27:07.642Z,8.03
2023-12-03T06:29:34.258Z,8.77
2023-12-03T06:32:00.896Z,8.47
2023-12-03T06:34:27.795Z,8.40
2023-12-03T06:36:54.654Z,27.00
2023-12-03T06:39:21.353Z,32.67
2023-12-03T06:41:48.073Z,8.80
2023-12-03T06:44:15.897Z,9.20
2023-12-03T06:46:43.535Z,9.27
2023-12-03T06:49:11.636Z,9.10
2023-12-03T06:51:38.441Z,10.10
2023-12-03T06:54:05.406Z,9.80
2023-12-03T06:56:32.070Z,9.60
2023-12-03T06:58:58.669Z,11.73
2023-12-03T07:01:25.359Z,10.30
2023-12-03T07:03:53.679Z,11.30
2023-12-03T07:06:20.585Z,11.10
2023-12-03T07:08:47.301Z,11.80
2023-12-03T07:11:14.776Z,9.97
2023-12-03T07:13:41.877Z,12.13
2023-12-03T07:16:10.673Z,10.17
2023-12-03T07:18:38.092Z,12.50
2023-12-03T07:21:04.981Z,24.10
2023-12-03T07:23:31.622Z,16.97
2023-12-03T07:25:58.328Z,13.77
2023-12-03T07:28:24.959Z,12.57
2023-12-03T07:30:51.588Z,11.83
2023-12-03T07:33:18.344Z,14.37
2023-12-03T07:35:45.047Z,13.13
2023-12-03T07:38:11.772Z,13.47
2023-12-03T07:40:38.355Z,14.33
2023-12-03T07:43:04.984Z,14.30
2023-12-03T07:45:31.679Z,16.50
2023-12-03T07:47:58.360Z,15.37
2023-12-03T07:50:25.405Z,17.30
2023-12-03T07:52:52.025Z,15.27
2023-12-03T07:55:18.803Z,17.83
2023-12-03T07:57:45.565Z,17.37
2023-12-03T08:00:12.679Z,16.40
2023-12-03T08:02:39.325Z,19.07
2023-12-03T08:05:06.287Z,15.00
2023-12-03T08:07:33.207Z,13.20
2023-12-03T08:09:59.900Z,13.37
2023-12-03T08:12:26.631Z,15.30
2023-12-03T08:14:53.275Z,13.37
2023-12-03T08:17:19.957Z,14.90
2023-12-03T08:19:46.825Z,15.40
2023-12-03T08:22:13.522Z,14.03
2023-12-03T08:24:40.160Z,15.47
2023-12-03T08:27:06.903Z,13.90
2023-12-03T08:29:34.138Z,14.70
2023-12-03T08:32:00.815Z,14.20
2023-12-03T08:34:27.703Z,16.20
2023-12-03T08:36:54.621Z,15.97
2023-12-03T08:39:22.130Z,15.37
2023-12-03T08:41:48.715Z,15.70
2023-12-03T08:44:15.275Z,17.10
2023-12-03T08:46:41.918Z,18.97
2023-12-03T08:49:08.700Z,18.73
2023-12-03T08:51:35.647Z,20.40
2023-12-03T08:54:02.516Z,18.10
2023-12-03T08:56:29.202Z,18.30
2023-12-03T08:58:55.893Z,20.37
2023-12-03T09:01:23.067Z,19.20
2023-12-03T09:03:50.852Z,16.47
2023-12-03T09:06:18.136Z,16.30
2023-12-03T09:08:44.902Z,15.07
2023-12-03T09:11:11.937Z,13.13
2023-12-03T09:13:39.131Z,12.70
2023-12-03T09:16:06.566Z,13.80
2023-12-03T09:18:35.744Z,15.03
2023-12-03T09:21:02.399Z,12.20
2023-12-03T09:23:29.567Z,9.90
2023-12-03T09:25:56.199Z,10.80
2023-12-03T09:28:22.802Z,11.27
2023-12-03T09:30:49.426Z,11.67
2023-12-03T09:33:16.054Z,10.67
2023-12-03T09:35:42.640Z,11.43
2023-12-03T09:38:09.251Z,11.70
2023-12-03T09:40:36.201Z,11.50
2023-12-03T09:43:05.481Z,16.80
2023-12-03T09:45:33.046Z,13.17
2023-12-03T09:48:03.453Z,13.07
2023-12-03T09:50:32.244Z,13.10
2023-12-03T09:52:59.641Z,14.70
2023-12-03T09:55:26.692Z,14.10
2023-12-03T09:57:59.501Z,12.57
2023-12-03T10:00:26.235Z,17.50
2023-12-03T10:02:54.297Z,13.37
2023-12-03T10:05:21.026Z,15.87
2023-12-03T10:07:48.593Z,17.30
2023-12-03T10:10:19.225Z,17.27
2023-12-03T10:12:47.044Z,18.70
2023-12-03T10:15:14.186Z,17.67
2023-12-03T10:17:41.306Z,17.93
2023-12-03T10:20:22.806Z,18.97
2023-12-03T10:22:50.764Z,17.40
2023-12-03T10:25:36.039Z,18.80
2023-12-03T10:28:07.678Z,18.67
2023-12-03T10:30:35.127Z,19.20
2023-12-03T10:33:02.303Z,17.13
2023-12-03T10:35:33.779Z,13.77
2023-12-03T10:38:00.412Z,14.90
2023-12-03T10:40:27.658Z,13.87
2023-12-03T10:42:54.510Z,13.30
2023-12-03T10:45:21.126Z,11.70
2023-12-03T10:47:47.831Z,12.47
2023-12-03T10:50:14.878Z,12.23
2023-12-03T10:52:42.078Z,11.80
2023-12-03T10:55:09.758Z,11.73
2023-12-03T10:57:47.841Z,12.60
2023-12-03T11:00:19.304Z,11.07
2023-12-03T11:02:50.176Z,11.30
2023-12-03T11:05:41.973Z,12.03
2023-12-03T11:08:09.485Z,11.47
2023-12-03T11:10:37.215Z,11.73
2023-12-03T11:13:04.414Z,10.87
2023-12-03T11:15:31.544Z,11.23
2023-12-03T11:17:58.755Z,11.37
2023-12-03T11:20:30.146Z,11.30
2023-12-03T11:23:09.739Z,11.80
2023-12-03T11:25:39.916Z,11.23
2023-12-03T11:28:08.331Z,11.23
2023-12-03T11:30:38.419Z,9.70
2023-12-03T11:33:14.898Z,11.10
2023-12-03T11:35:43.610Z,11.60
2023-12-03T11:38:26.381Z,9.30
2023-12-03T11:40:53.272Z,9.77
2023-12-03T11:43:27.369Z,8.40
2023-12-03T11:45:54.617Z,10.07
2023-12-03T11:48:23.094Z,9.53
2023-12-03T11:50:50.651Z,8.57
2023-12-03T11:53:18.477Z,9.53
2023-12-03T11:55:46.955Z,9.30
2023-12-03T11:58:14.803Z,9.10
2023-12-03T12:00:42.688Z,10.33
2023-12-03T12:03:10.183Z,8.17
2023-12-03T12:05:44.349Z,9.40
2023-12-03T12:08:11.167Z,9.93
2023-12-03T12:10:38.010Z,9.27
2023-12-03T12:13:05.677Z,10.27
2023-12-03T12:15:32.656Z,8.67
2023-12-03T12:17:59.597Z,8.27
2023-12-03T12:20:31.058Z,8.37
2023-12-03T12:22:58.502Z,8.87
2023-12-03T12:25:29.091Z,9.50
2023-12-03T12:27:56.650Z,8.47
2023-12-03T12:30:34.513Z,9.60
2023-12-03T12:33:05.721Z,7.37
2023-12-03T12:35:34.339Z,6.83
2023-12-03T12:38:01.596Z,7.90
2023-12-03T12:40:31.134Z,7.20
2023-12-03T12:43:25.754Z,8.60
2023-12-03T12:45:52.678Z,8.20
2023-12-03T12:48:31.966Z,8.57
2023-12-03T12:50:58.982Z,9.33
2023-12-03T12:53:26.291Z,8.83
2023-12-03T12:55:53.844Z,9.07
2023-12-03T12:58:21.008Z,8.80
2023-12-03T13:00:47.919Z,10.53
2023-12-03T13:03:14.755Z,9.13
2023-12-03T13:05:42.790Z,10.50
2023-12-03T13:08:09.648Z,9.20
2023-12-03T13:10:36.849Z,8.67
2023-12-03T13:13:04.132Z,8.47
2023-12-03T13:15:30.939Z,13.17
2023-12-03T13:18:08.272Z,11.47
2023-12-03T13:20:42.701Z,13.23
2023-12-03T13:23:10.241Z,9.50
2023-12-03T13:25:37.293Z,11.60
2023-12-03T13:28:04.014Z,11.40
2023-12-03T13:30:30.671Z,10.93
2023-12-03T13:32:59.375Z,12.40
2023-12-03T13:35:26.138Z,10.30
2023-12-03T13:37:52.935Z,11.00
2023-12-03T13:40:19.526Z,10.70
2023-12-03T13:42:53.650Z,8.70
2023-12-03T13:45:21.234Z,9.57
2023-12-03T13:47:48.004Z,11.47
2023-12-03T13:50:14.753Z,17.40
2023-12-03T13:52:41.366Z,14.40
2023-12-03T13:55:08.512Z,15.33
2023-12-03T13:57:35.498Z,13.30
2023-12-03T14:00:02.299Z,11.90
2023-12-03T14:02:35.855Z,14.83
2023-12-03T14:05:20.479Z,16.83
2023-12-03T14:07:54.103Z,17.40
2023-12-03T14:10:22.813Z,24.10
2023-12-03T14:12:49.659Z,31.80
2023-12-03T14:15:16.795Z,32.10
2023-12-03T14:17:43.617Z,21.23
2023-12-03T14:20:10.778Z,14.07
2023-12-03T14:22:37.507Z,12.67
2023-12-03T14:25:04.666Z,10.37
2023-12-03T14:27:31.688Z,12.90
2023-12-03T14:29:58.386Z,12.20
2023-12-03T14:32:25.060Z,12.40
2023-12-03T14:34:51.713Z,11.60
2023-12-03T14:37:18.437Z,12.47
2023-12-03T14:39:45.142Z,12.33
2023-12-03T14:42:11.818Z,10.40
2023-12-03T14:44:39.392Z,11.97
2023-12-03T14:47:06.042Z,10.20
2023-12-03T14:49:32.965Z,10.03
2023-12-03T14:51:59.712Z,9.80
2023-12-03T14:54:26.339Z,14.70
2023-12-03T14:56:53.622Z,19.60
2023-12-03T14:59:20.264Z,14.10
2023-12-03T15:01:47.304Z,10.67
2023-12-03T15:04:14.517Z,12.03
2023-12-03T15:06:41.273Z,11.03
2023-12-03T15:09:08.067Z,11.00
2023-12-03T15:11:34.730Z,10.53
2023-12-03T15:14:01.358Z,13.60
2023-12-03T15:16:30.030Z,12.90
2023-12-03T15:18:57.205Z,12.43
2023-12-03T15:21:23.993Z,11.87
2023-12-03T15:23:51.251Z,11.70
2023-12-03T15:26:17.956Z,11.67
2023-12-03T15:28:44.651Z,10.80
2023-12-03T15:31:11.845Z,12.67
2023-12-03T15:33:39.194Z,13.37
2023-12-03T15:36:07.393Z,12.07
2023-12-03T15:38:34.114Z,21.70
2023-12-03T15:41:01.743Z,18.53
2023-12-03T15:43:34.231Z,15.17
2023-12-03T15:46:08.255Z,13.77
2023-12-03T15:48:35.719Z,16.70
2023-12-03T15:51:02.682Z,17.70
2023-12-03T15:53:29.326Z,14.73
2023-12-03T15:55:57.148Z,14.00
2023-12-03T15:58:25.897Z,13.77
2023-12-03T16:00:53.029Z,10.97
2023-12-03T16:03:21.229Z,13.20
2023-12-03T16:05:48.162Z,12.30
2023-12-03T16:08:14.921Z,11.90
2023-12-03T16:10:41.485Z,14.50
2023-12-03T16:13:08.106Z,10.90
2023-12-03T16:15:34.893Z,10.63
2023-12-03T16:18:01.594Z,11.70
2023-12-03T16:20:28.848Z,11.20
2023-12-03T16:22:55.639Z,10.50
2023-12-03T16:25:22.700Z,12.00
2023-12-03T16:27:49.578Z,13.13
2023-12-03T16:30:17.937Z,11.73
2023-12-03T16:32:45.183Z,12.77
2023-12-03T16:35:12.983Z,11.77
2023-12-03T16:37:40.047Z,13.93
2023-12-03T16:40:08.073Z,19.60
2023-12-03T16:42:34.692Z,12.17
2023-12-03T16:45:01.531Z,13.50
2023-12-03T16:47:28.303Z,11.57
2023-12-03T16:49:55.067Z,12.60
2023-12-03T16:52:21.684Z,15.37
2023-12-03T16:54:48.689Z,11.50
2023-12-03T16:57:16.390Z,11.33
2023-12-03T16:59:43.281Z,12.03
2023-12-03T17:02:10.063Z,10.50
2023-12-03T17:04:38.194Z,14.23
2023-12-03T17:07:05.675Z,13.83
2023-12-03T17:09:32.578Z,13.23
2023-12-03T17:12:02.138Z,13.47
2023-12-03T17:14:29.261Z,13.27
2023-12-03T17:16:56.993Z,13.27
2023-12-03T17:19:23.841Z,13.40
2023-12-03T17:21:50.659Z,14.00
2023-12-03T17:24:17.272Z,18.00
2023-12-03T17:26:44.137Z,16.07
2023-12-03T17:29:11.568Z,15.70
2023-12-03T17:31:38.488Z,16.23
2023-12-03T17:34:06.314Z,15.60
2023-12-03T17:36:35.300Z,18.00
2023-12-03T17:39:04.467Z,18.40
2023-12-03T17:41:32.056Z,19.07
2023-12-03T17:43:58.827Z,16.93
2023-12-03T17:46:25.754Z,15.20
2023-12-03T17:48:53.049Z,14.63
2023-12-03T17:51:19.875Z,11.87
2023-12-03T17:53:47.420Z,11.77
2023-12-03T17:56:14.588Z,12.23
2023-12-03T17:58:41.253Z,8.97
2023-12-03T18:01:08.538Z,9.50
2023-12-03T18:03:35.394Z,9.43
2023-12-03T18:06:04.653Z,10.10
2023-12-03T18:08:31.317Z,9.13
2023-12-03T18:10:59.453Z,9.90
2023-12-03T18:13:26.196Z,10.10
2023-12-03T18:15:53.319Z,9.47
2023-12-03T18:18:20.197Z,10.50
2023-12-03T18:20:47.029Z,9.27
2023-12-03T18:23:13.872Z,12.27
2023-12-03T18:25:40.491Z,9.83
2023-12-03T18:28:10.093Z,8.97
2023-12-03T18:30:39.494Z,13.07
2023-12-03T18:33:08.774Z,13.20
2023-12-03T18:35:35.897Z,14.33
2023-12-03T18:38:02.618Z,13.83
2023-12-03T18:40:29.353Z,13.23
2023-12-03T18:42:56.557Z,12.93
2023-12-03T18:45:24.348Z,12.87
2023-12-03T18:47:51.561Z,12.37
2023-12-03T18:50:18.379Z,10.93
2023-12-03T18:52:45.102Z,9.80
2023-12-03T18:55:14.915Z,10.30
2023-12-03T18:57:42.129Z,13.07
2023-12-03T19:00:10.441Z,11.07
2023-12-03T19:02:42.040Z,13.57
2023-12-03T19:05:10.312Z,12.67
2023-12-03T19:07:38.800Z,12.17
2023-12-03T19:10:07.610Z,13.00
2023-12-03T19:12:34.403Z,10.87
2023-12-03T19:15:02.063Z,11.83
2023-12-03T19:17:28.940Z,12.27
2023-12-03T19:19:55.572Z,11.43
2023-12-03T19:22:22.164Z,14.00
2023-12-03T19:24:48.935Z,10.30
2023-12-03T19:27:15.758Z,10.17
2023-12-03T19:29:43.635Z,11.40
2023-12-03T19:32:10.260Z,12.97
2023-12-03T19:34:36.930Z,13.53
2023-12-03T19:37:03.730Z,11.50
2023-12-03T19:39:33.778Z,10.40
2023-12-03T19:42:00.661Z,11.00
2023-12-03T19:44:28.336Z,10.93
2023-12-03T19:46:56.174Z,11.13
2023-12-03T19:49:22.832Z,12.17
2023-12-03T19:51:49.799Z,12.47
2023-12-03T19:54:16.756Z,15.10
2023-12-03T19:56:43.479Z,11.00
2023-12-03T19:59:10.135Z,10.40
2023-12-03T20:01:36.848Z,11.67
2023-12-03T20:04:04.725Z,9.90
2023-12-03T20:06:31.506Z,10.40
2023-12-03T20:08:58.264Z,9.10
2023-12-03T20:11:25.000Z,8.37
2023-12-03T20:13:51.827Z,8.47
2023-12-03T20:16:18.827Z,7.13
2023-12-03T20:18:45.719Z,5.97
2023-12-03T20:21:12.543Z,5.70
2023-12-03T20:23:39.871Z,6.87
2023-12-03T20:26:09.347Z,5.60
2023-12-03T20:28:36.506Z,4.93
2023-12-03T20:31:03.467Z,6.37
2023-12-03T20:33:30.650Z,5.57
2023-12-03T20:35:59.206Z,7.37
2023-12-03T20:38:26.407Z,6.17
2023-12-03T20:40:53.155Z,4.77
2023-12-03T20:43:19.956Z,7.40
2023-12-03T20:45:46.806Z,6.10
2023-12-03T20:48:14.043Z,5.57
2023-12-03T20:50:40.897Z,6.07
2023-12-03T20:53:07.824Z,5.40
2023-12-03T20:55:34.514Z,6.30
2023-12-03T20:58:01.419Z,6.70
2023-12-03T21:00:29.063Z,5.03
2023-12-03T21:02:56.632Z,5.57
2023-12-03T21:05:23.324Z,7.43
2023-12-03T21:07:51.486Z,4.80
2023-12-03T21:10:18.906Z,6.10
2023-12-03T21:12:45.803Z,6.30
2023-12-03T21:15:12.878Z,6.40
2023-12-03T21:17:41.080Z,8.60
2023-12-03T21:20:09.265Z,6.60
2023-12-03T21:22:36.141Z,6.47
2023-12-03T21:25:04.990Z,7.90
2023-12-03T21:27:32.033Z,6.90
2023-12-03T21:29:58.704Z,6.00
2023-12-03T21:32:27.367Z,6.43
2023-12-03T21:34:54.135Z,5.70
2023-12-03T21:37:21.072Z,5.43
2023-12-03T21:39:50.851Z,5.67
2023-12-03T21:42:17.460Z,6.33
2023-12-03T21:44:44.342Z,7.30
2023-12-03T21:47:11.067Z,5.90
2023-12-03T21:49:37.777Z,5.77
2023-12-03T21:52:04.753Z,6.17
2023-12-03T21:54:31.633Z,5.50
2023-12-03T21:56:58.413Z,6.13
2023-12-03T21:59:25.051Z,5.30
2023-12-03T22:01:51.901Z,5.93
2023-12-03T22:04:18.631Z,5.63
2023-12-03T22:06:45.341Z,5.80
2023-12-03T22:09:11.954Z,5.87
2023-12-03T22:11:38.613Z,7.93
2023-12-03T22:14:05.250Z,5.70
2023-12-03T22:16:31.930Z,6.47
2023-12-03T22:18:58.828Z,6.63
2023-12-03T22:21:25.512Z,6.53
2023-12-03T22:23:52.139Z,6.53
2023-12-03T22:26:18.782Z,6.23
2023-12-03T22:28:45.404Z,5.90
2023-12-03T22:31:12.101Z,5.33
2023-12-03T22:33:38.805Z,6.40
2023-12-03T22:36:05.863Z,5.80
2023-12-03T22:38:32.786Z,5.53
2023-12-03T22:40:59.687Z,5.63
2023-12-03T22:43:26.766Z,6.40
2023-12-03T22:45:54.376Z,5.40
2023-12-03T22:48:21.011Z,5.80
2023-12-03T22:50:48.389Z,5.23
2023-12-03T22:53:15.032Z,4.93
2023-12-03T22:55:42.969Z,5.23
2023-12-03T22:58:10.086Z,4.10
2023-12-03T23:00:36.719Z,4.70
2023-12-03T23:03:03.467Z,5.80
2023-12-03T23:05:35.400Z,4.83
2023-12-03T23:08:05.766Z,4.83
2023-12-03T23:10:32.443Z,5.40
2023-12-03T23:12:59.041Z,6.97
2023-12-03T23:15:25.704Z,5.90
2023-12-03T23:17:52.418Z,5.50
2023-12-03T23:20:19.343Z,6.47
2023-12-03T23:22:45.963Z,5.57
2023-12-03T23:25:13.250Z,4.17
2023-12-03T23:27:39.835Z,6.43
2023-12-03T23:30:07.148Z,5.00
2023-12-03T23:32:33.983Z,4.60
2023-12-03T23:35:01.776Z,4.40
2023-12-03T23:37:28.362Z,4.83
2023-12-03T23:39:54.960Z,5.10
2023-12-03T23:42:21.667Z,5.60
2023-12-03T23:44:48.380Z,5.13
2023-12-03T23:47:14.976Z,5.97
2023-12-03T23:49:41.737Z,6.17
2023-12-03T23:52:08.564Z,5.50
2023-12-03T23:54:36.753Z,6.30
2023-12-03T23:57:05.056Z,4.40
2023-12-03T23:59:31.776Z,5.90
